Time;durP1;ratioP1;P1;durP2;ratioP2;P2;SDS_P1;SDS_P2;PMS_P1;PMS_P2;Temp;Humidity;BMP_temperature;BMP_pressure;BME280_temperature;BME280_humidity;BME280_pressure;Samples;Min_cycle;Max_cycle;Signal;HPM_P1;HPM_P2
2021/09/15 00:00:49;;;;;;;3.20;0.30;;;;;;;19.35;55.81;102007.47;5036400;28;20376;-66
2021/09/15 00:03:14;;;;;;;0.25;0.20;;;;;;;19.33;55.71;102001.31;5035876;28;20035;-66
2021/09/15 00:05:39;;;;;;;0.32;0.20;;;;;;;19.34;55.12;101997.56;5036271;28;20472;-66
2021/09/15 00:08:05;;;;;;;0.32;0.30;;;;;;;19.37;54.61;101996.41;5036027;28;20739;-66
2021/09/15 00:10:30;;;;;;;0.55;0.32;;;;;;;19.35;55.69;101993.81;5036063;28;20028;-66
2021/09/15 00:12:56;;;;;;;0.70;0.20;;;;;;;19.36;54.90;101994.69;5038362;28;20025;-66
2021/09/15 00:15:21;;;;;;;1.08;0.40;;;;;;;19.36;55.72;101992.81;5035924;28;20017;-67
2021/09/15 00:17:46;;;;;;;0.65;0.30;;;;;;;19.30;56.16;101993.38;5036037;28;20036;-66
2021/09/15 00:20:12;;;;;;;0.85;0.38;;;;;;;19.27;55.64;101993.69;5036034;28;20026;-66
2021/09/15 00:22:37;;;;;;;0.30;0.20;;;;;;;19.30;55.57;101989.81;5035552;28;20030;-66
2021/09/15 00:25:03;;;;;;;0.50;0.30;;;;;;;19.31;55.29;101988.78;5035638;28;20032;-66
2021/09/15 00:27:28;;;;;;;0.73;0.22;;;;;;;19.29;56.70;101988.94;5035879;28;20423;-66
2021/09/15 00:29:54;;;;;;;0.40;0.30;;;;;;;19.28;54.46;101998.13;5035666;28;20021;-66
2021/09/15 00:32:19;;;;;;;0.63;0.30;;;;;;;19.29;55.24;102002.59;5035410;28;20495;-66
2021/09/15 00:34:44;;;;;;;0.63;0.32;;;;;;;19.27;56.54;102001.88;5036359;28;20492;-66
2021/09/15 00:37:10;;;;;;;0.45;0.40;;;;;;;19.29;56.04;101999.00;5018130;28;20045;-67
2021/09/15 00:39:35;;;;;;;0.60;0.30;;;;;;;19.29;56.08;102009.91;5035591;28;20029;-66
2021/09/15 00:42:00;;;;;;;0.45;0.32;;;;;;;19.29;55.89;102008.03;5035020;28;20457;-66
2021/09/15 00:44:26;;;;;;;0.65;0.50;;;;;;;19.29;55.18;102010.75;5017800;28;20032;-66
2021/09/15 00:46:51;;;;;;;0.43;0.20;;;;;;;19.28;55.56;102006.31;5035180;28;20032;-66
2021/09/15 00:49:17;;;;;;;0.70;0.60;;;;;;;19.24;55.03;102011.22;5035169;28;20467;-66
2021/09/15 00:51:43;;;;;;;0.55;0.30;;;;;;;19.27;57.14;102001.88;5035370;28;20032;-66
2021/09/15 00:54:11;;;;;;;0.20;0.20;;;;;;;19.22;55.84;102009.66;5017486;28;20476;-66
2021/09/15 00:56:38;;;;;;;0.70;0.28;;;;;;;19.26;55.41;102016.53;5036037;28;20033;-66
2021/09/15 00:59:03;;;;;;;0.30;0.30;;;;;;;19.24;56.50;102003.03;5017023;28;20033;-67
2021/09/15 01:01:29;;;;;;;0.68;0.32;;;;;;;19.22;55.31;102005.06;5035283;28;20381;-66
2021/09/15 01:03:55;;;;;;;0.52;0.30;;;;;;;19.22;55.89;102015.97;5017212;28;20117;-67
2021/09/15 01:06:21;;;;;;;1.10;0.50;;;;;;;19.23;56.42;102000.47;5035191;28;20461;-66
2021/09/15 01:08:47;;;;;;;0.60;0.40;;;;;;;19.20;55.63;102017.13;5035066;28;20029;-66
2021/09/15 01:11:14;;;;;;;0.73;0.35;;;;;;;19.22;55.28;102010.50;5034906;28;20108;-66
2021/09/15 01:13:40;;;;;;;0.75;0.28;;;;;;;19.24;56.88;102013.09;5034922;28;20111;-66
2021/09/15 01:16:05;;;;;;;1.10;0.47;;;;;;;19.23;56.29;102016.81;5016821;28;20071;-67
2021/09/15 01:18:41;;;;;;;1.30;0.70;;;;;;;19.20;58.75;102011.66;5035994;28;20484;-66
2021/09/15 01:21:07;;;;;;;0.30;0.30;;;;;;;19.17;55.95;102018.28;5034551;28;20530;-66
2021/09/15 01:23:33;;;;;;;1.13;0.22;;;;;;;19.21;55.43;102013.38;5035004;28;20380;-66
2021/09/15 01:25:58;;;;;;;0.50;0.30;;;;;;;19.19;55.87;102020.88;5034142;28;20025;-66
2021/09/15 01:28:23;;;;;;;0.57;0.30;;;;;;;19.20;57.61;102015.25;5034191;28;20026;-66
2021/09/15 01:30:49;;;;;;;0.30;0.30;;;;;;;19.18;56.32;102016.41;5034655;28;20442;-66
2021/09/15 01:33:16;;;;;;;0.60;0.32;;;;;;;19.24;55.88;102015.81;5034235;28;20025;-66
2021/09/15 01:35:43;;;;;;;0.30;0.30;;;;;;;19.17;56.13;102014.72;5034740;28;20072;-66
2021/09/15 01:38:10;;;;;;;0.55;0.43;;;;;;;19.15;56.97;102009.41;5034332;28;20049;-67
2021/09/15 01:40:36;;;;;;;0.70;0.20;;;;;;;19.20;55.48;102015.25;5034488;28;20104;-67
2021/09/15 01:43:01;;;;;;;0.38;0.30;;;;;;;19.23;56.11;102006.78;5037992;28;20060;-66
2021/09/15 01:45:27;;;;;;;1.42;0.30;;;;;;;19.22;56.99;102010.50;5034197;28;20060;-66
2021/09/15 01:47:53;;;;;;;0.70;0.30;;;;;;;19.19;57.78;102007.22;5034240;28;20371;-66
2021/09/15 01:50:19;;;;;;;0.30;0.13;;;;;;;19.18;55.14;102013.69;5029090;28;20032;-67
2021/09/15 01:52:44;;;;;;;1.35;0.30;;;;;;;19.15;55.99;102014.00;5014375;28;20397;-66
2021/09/15 01:55:25;;;;;;;1.95;0.40;;;;;;;19.19;56.64;102009.97;5013980;28;20061;-67
2021/09/15 01:57:51;;;;;;;0.57;0.40;;;;;;;19.17;55.55;102006.53;5014194;28;20397;-66
2021/09/15 02:00:16;;;;;;;1.15;0.30;;;;;;;19.16;56.44;102002.09;5014072;28;20032;-66
2021/09/15 02:02:43;;;;;;;0.40;0.30;;;;;;;19.15;56.09;102003.09;5014297;28;20022;-66
2021/09/15 02:05:09;;;;;;;0.50;0.40;;;;;;;19.21;55.31;101997.88;5015486;28;20109;-66
2021/09/15 02:07:35;;;;;;;0.65;0.30;;;;;;;19.14;57.95;101996.75;5034728;28;20416;-66
2021/09/15 02:10:00;;;;;;;0.40;0.40;;;;;;;19.15;56.45;102008.53;5033734;28;20086;-66
2021/09/15 02:12:26;;;;;;;0.35;0.28;;;;;;;19.13;56.31;102013.25;5033523;28;20353;-67
2021/09/15 02:14:51;;;;;;;1.48;0.30;;;;;;;19.10;57.28;102014.41;5033854;28;20025;-66
2021/09/15 02:17:16;;;;;;;1.05;0.30;;;;;;;19.13;55.93;102015.97;5033585;28;20488;-67
2021/09/15 02:19:42;;;;;;;0.73;0.40;;;;;;;19.15;55.99;102014.84;5033406;28;20032;-66
2021/09/15 02:22:07;;;;;;;0.68;0.40;;;;;;;19.12;56.18;102019.72;5033304;28;20415;-66
2021/09/15 02:24:32;;;;;;;0.28;0.28;;;;;;;19.12;56.02;102030.63;5015675;28;20026;-66
2021/09/15 02:26:58;;;;;;;1.10;0.40;;;;;;;19.12;56.34;102030.63;5032253;28;20022;-66
2021/09/15 02:29:23;;;;;;;0.20;0.17;;;;;;;19.13;56.63;102035.06;5034967;28;20056;-66
2021/09/15 02:31:49;;;;;;;1.20;0.30;;;;;;;19.13;56.60;102037.78;5015713;28;20048;-66
2021/09/15 02:34:14;;;;;;;0.43;0.28;;;;;;;19.10;55.81;102032.63;5033144;28;20033;-67
2021/09/15 02:36:39;;;;;;;0.98;0.35;;;;;;;19.08;57.28;102042.84;5015855;28;20044;-66
2021/09/15 02:39:05;;;;;;;0.63;0.10;;;;;;;19.03;56.99;102026.06;5033409;28;20032;-66
2021/09/15 02:41:30;;;;;;;0.93;0.15;;;;;;;19.09;56.61;102025.47;5033405;28;20025;-66
2021/09/15 02:43:55;;;;;;;0.73;0.22;;;;;;;19.14;56.67;102023.16;5033048;28;20030;-66
2021/09/15 02:46:21;;;;;;;1.20;0.40;;;;;;;19.06;57.38;102023.91;5033384;28;20472;-67
2021/09/15 02:48:46;;;;;;;0.65;0.28;;;;;;;19.03;56.55;102026.94;5033169;28;20029;-66
2021/09/15 02:51:12;;;;;;;0.45;0.35;;;;;;;19.08;58.79;102023.75;5036708;28;20476;-66
2021/09/15 02:53:37;;;;;;;0.45;0.45;;;;;;;19.07;58.25;101970.25;5033257;28;20029;-66
2021/09/15 02:56:03;;;;;;;1.85;0.20;;;;;;;19.07;58.29;101968.38;5033147;28;20033;-67
2021/09/15 02:58:28;;;;;;;1.23;0.68;;;;;;;19.11;57.82;101953.44;5033404;28;20021;-66
2021/09/15 03:00:54;;;;;;;0.82;0.30;;;;;;;19.10;56.50;102043.53;5033057;28;20417;-66
2021/09/15 03:03:19;;;;;;;0.93;0.45;;;;;;;19.12;56.72;102030.63;5032890;28;20029;-66
2021/09/15 03:05:45;;;;;;;1.15;0.40;;;;;;;19.09;57.42;102028.19;5033109;28;20021;-66
2021/09/15 03:08:11;;;;;;;0.35;0.30;;;;;;;19.11;57.13;102028.91;5032784;28;20464;-66
2021/09/15 03:10:36;;;;;;;0.50;0.40;;;;;;;19.11;56.91;102035.22;5015490;28;20033;-65
2021/09/15 03:13:02;;;;;;;0.30;0.30;;;;;;;19.06;56.65;102004.81;5034734;28;20029;-66
2021/09/15 03:15:27;;;;;;;0.77;0.45;;;;;;;19.11;57.88;102004.38;5035921;28;20025;-66
2021/09/15 03:17:52;;;;;;;0.75;0.52;;;;;;;19.08;57.51;102001.94;5031487;28;20120;-67
2021/09/15 03:20:19;;;;;;;0.47;0.47;;;;;;;19.10;56.70;102002.66;5032717;28;20376;-66
2021/09/15 03:22:44;;;;;;;0.60;0.43;;;;;;;19.09;58.55;102011.84;5032720;28;20025;-66
2021/09/15 03:25:10;;;;;;;0.45;0.40;;;;;;;19.10;57.54;102005.38;5032670;28;20064;-66
2021/09/15 03:27:35;;;;;;;0.80;0.38;;;;;;;19.07;58.17;102011.13;5032846;28;20047;-66
2021/09/15 03:30:01;;;;;;;0.43;0.20;;;;;;;19.09;57.25;102023.59;5032824;28;20503;-66
2021/09/15 03:32:26;;;;;;;1.85;0.50;;;;;;;19.05;56.83;102018.59;5035404;28;20047;-66
2021/09/15 03:34:51;;;;;;;0.52;0.35;;;;;;;19.08;56.51;102012.84;5036579;28;20136;-67
2021/09/15 03:37:17;;;;;;;0.40;0.30;;;;;;;19.06;56.34;102009.41;5036780;28;20025;-66
2021/09/15 03:39:42;;;;;;;1.05;0.35;;;;;;;19.08;60.60;102010.13;5035817;28;20029;-66
2021/09/15 03:42:07;;;;;;;0.95;0.30;;;;;;;19.09;58.64;102009.13;5036552;28;20492;-66
2021/09/15 03:44:33;;;;;;;0.43;0.30;;;;;;;19.10;56.39;102013.56;5036598;28;20516;-66
2021/09/15 03:46:58;;;;;;;0.30;0.30;;;;;;;19.11;58.90;102013.41;5036076;28;20025;-66
2021/09/15 03:49:24;;;;;;;1.30;0.40;;;;;;;19.07;56.80;102022.91;5036442;28;20523;-66
2021/09/15 03:51:49;;;;;;;0.43;0.20;;;;;;;19.07;56.87;102022.03;5036249;28;20056;-66
2021/09/15 03:54:16;;;;;;;1.55;0.38;;;;;;;19.05;56.57;102024.06;5036301;28;20017;-66
2021/09/15 03:56:41;;;;;;;1.30;0.47;;;;;;;19.05;57.68;102021.34;5018761;28;20026;-66
2021/09/15 03:59:07;;;;;;;0.40;0.28;;;;;;;19.07;58.01;102022.91;5043930;28;20028;-66
2021/09/15 04:01:33;;;;;;;0.30;0.30;;;;;;;19.16;56.94;102015.72;5036158;28;20025;-67
2021/09/15 04:03:58;;;;;;;0.17;0.10;;;;;;;19.65;55.25;102016.38;5036025;28;20151;-66
2021/09/15 04:06:23;;;;;;;0.32;0.20;;;;;;;19.91;55.27;102014.66;5036046;28;20361;-66
2021/09/15 04:08:49;;;;;;;0.38;0.17;;;;;;;20.07;54.96;102006.63;5036180;28;20380;-66
2021/09/15 04:11:14;;;;;;;0.82;0.20;;;;;;;20.20;55.86;102010.88;5036088;28;20460;-66
2021/09/15 04:13:40;;;;;;;0.35;0.22;;;;;;;20.37;54.68;102008.13;5036110;28;20044;-66
2021/09/15 04:16:05;;;;;;;0.68;0.30;;;;;;;20.44;54.68;102008.38;5035825;28;20025;-66
2021/09/15 04:18:30;;;;;;;0.47;0.10;;;;;;;20.46;55.63;102003.63;5035913;28;20021;-67
2021/09/15 04:20:56;;;;;;;1.27;0.30;;;;;;;20.48;55.10;102004.31;5041306;28;20028;-66
2021/09/15 04:23:26;;;;;;;0.50;0.20;;;;;;;20.56;56.00;101996.19;5035793;28;20112;-66
2021/09/15 04:31:24;;;;;;;1.50;0.20;;;;;;;20.75;55.69;102011.53;5035809;28;20040;-67
2021/09/15 04:33:50;;;;;;;0.85;0.10;;;;;;;20.81;56.43;102010.03;5035402;28;20037;-66
2021/09/15 04:36:16;;;;;;;0.43;0.35;;;;;;;20.78;56.81;102010.38;5035608;28;20052;-66
2021/09/15 04:38:42;;;;;;;0.55;0.10;;;;;;;20.87;56.83;102009.44;5035748;28;20057;-66
2021/09/15 04:41:08;;;;;;;0.77;0.10;;;;;;;20.81;56.87;102007.31;5034151;28;20099;-66
2021/09/15 04:43:33;;;;;;;1.75;0.20;;;;;;;20.84;57.13;102009.75;5022942;28;20076;-66
2021/09/15 04:45:58;;;;;;;0.10;0.10;;;;;;;20.85;56.46;102016.94;5015448;28;20029;-66
2021/09/15 04:48:24;;;;;;;0.17;0.13;;;;;;;20.87;57.40;102014.88;5015352;28;20021;-66
2021/09/15 04:50:49;;;;;;;0.45;0.20;;;;;;;20.92;57.30;102020.72;4998127;28;20017;-66
2021/09/15 04:53:16;;;;;;;0.63;0.20;;;;;;;20.92;56.75;102023.47;5015496;28;20453;-66
2021/09/15 04:55:41;;;;;;;0.20;0.10;;;;;;;20.90;58.20;102025.50;5015498;28;20592;-66
2021/09/15 04:58:06;;;;;;;0.55;0.32;;;;;;;20.92;55.88;102028.94;5015269;28;20030;-66
2021/09/15 05:00:33;;;;;;;0.20;0.10;;;;;;;20.88;58.92;102030.28;5015535;28;20072;-66
2021/09/15 05:02:58;;;;;;;0.28;0.20;;;;;;;20.93;57.21;102031.50;5014991;28;20018;-66
2021/09/15 05:05:24;;;;;;;0.35;0.20;;;;;;;20.97;57.55;102021.94;5015558;28;20350;-66
2021/09/15 05:07:49;;;;;;;0.17;0.10;;;;;;;20.99;57.51;102024.53;5019140;28;20026;-66
2021/09/15 05:10:14;;;;;;;0.73;0.20;;;;;;;21.04;57.87;102038.59;5014757;28;20453;-66
2021/09/15 05:12:40;;;;;;;0.57;0.20;;;;;;;21.07;57.82;102027.31;5015324;28;20030;-65
2021/09/15 05:15:06;;;;;;;0.43;0.10;;;;;;;21.02;56.89;102029.69;5014949;28;20049;-66
2021/09/15 05:17:32;;;;;;;0.40;0.15;;;;;;;21.06;58.52;102039.28;5015095;28;20022;-66
2021/09/15 05:19:57;;;;;;;0.30;0.15;;;;;;;21.06;57.48;102042.03;5015011;28;20048;-66
2021/09/15 05:22:22;;;;;;;0.63;0.20;;;;;;;21.08;58.47;102042.72;5014801;28;20473;-66
2021/09/15 05:24:48;;;;;;;0.40;0.30;;;;;;;21.13;58.29;102034.88;5031514;28;20037;-66
2021/09/15 05:27:13;;;;;;;0.20;0.10;;;;;;;21.14;58.94;102033.00;5034418;28;20025;-65
2021/09/15 05:29:38;;;;;;;0.65;0.38;;;;;;;21.09;59.08;102033.50;5021651;28;20040;-66
2021/09/15 05:32:04;;;;;;;0.40;0.20;;;;;;;21.13;58.58;102031.28;5034648;28;20028;-66
2021/09/15 05:34:29;;;;;;;0.10;0.10;;;;;;;21.15;58.34;102035.56;5034122;28;20045;-66
2021/09/15 05:36:55;;;;;;;0.47;0.10;;;;;;;21.16;57.90;102031.81;5034107;28;20031;-66
2021/09/15 05:39:20;;;;;;;0.28;0.10;;;;;;;21.17;61.84;102038.16;5034624;28;20032;-65
2021/09/15 05:41:45;;;;;;;0.55;0.10;;;;;;;21.18;58.99;102040.75;5034435;28;20029;-66
2021/09/15 05:44:11;;;;;;;0.40;0.20;;;;;;;21.21;59.49;102034.94;5034287;28;20534;-66
2021/09/15 05:46:36;;;;;;;0.95;0.17;;;;;;;21.23;58.67;102030.16;5034340;28;20036;-66
2021/09/15 05:49:03;;;;;;;0.20;0.20;;;;;;;21.20;59.08;102037.84;5034245;28;20037;-66
2021/09/15 05:51:29;;;;;;;0.28;0.20;;;;;;;21.19;58.82;102042.44;5021679;28;20057;-66
2021/09/15 05:53:55;;;;;;;1.20;0.30;;;;;;;21.21;59.20;102042.28;5014755;28;20030;-66
2021/09/15 05:56:20;;;;;;;1.48;0.52;;;;;;;21.22;59.85;102050.34;5013670;28;20033;-66
2021/09/15 05:58:45;;;;;;;0.10;0.10;;;;;;;21.20;59.12;102046.91;5014457;28;20041;-66
2021/09/15 06:01:11;;;;;;;0.52;0.30;;;;;;;21.24;61.02;102050.16;4996361;28;20024;-66
2021/09/15 06:03:36;;;;;;;0.43;0.15;;;;;;;21.25;58.04;102046.44;5014219;28;20034;-66
2021/09/15 06:06:01;;;;;;;0.22;0.13;;;;;;;21.28;60.53;102046.13;5021446;28;20064;-66
2021/09/15 06:08:27;;;;;;;0.00;0.00;;;;;;;21.26;58.57;102062.69;5033601;28;20037;-66
2021/09/15 06:10:52;;;;;;;0.20;0.08;;;;;;;21.26;59.27;102054.47;5015408;28;20021;-66
2021/09/15 06:13:18;;;;;;;0.10;0.10;;;;;;;21.32;58.23;102053.81;5033713;28;20033;-66
2021/09/15 06:15:44;;;;;;;0.10;0.10;;;;;;;21.28;58.59;102063.38;5033980;28;20033;-66
2021/09/15 06:18:09;;;;;;;0.15;0.05;;;;;;;21.25;58.21;102055.50;5033085;28;20629;-66
2021/09/15 06:20:35;;;;;;;1.27;0.30;;;;;;;21.25;58.54;102058.25;5033426;28;20033;-66
2021/09/15 06:23:00;;;;;;;0.45;0.17;;;;;;;21.16;58.14;102063.78;5031830;28;20045;-66
2021/09/15 06:25:27;;;;;;;0.30;0.20;;;;;;;21.03;58.81;102054.13;5026323;28;20087;-66
2021/09/15 06:27:54;;;;;;;0.30;0.20;;;;;;;20.95;56.85;102055.94;5032634;28;20034;-66
2021/09/15 06:30:21;;;;;;;0.15;0.10;;;;;;;20.85;58.89;102061.53;5030449;28;20065;-66
2021/09/15 06:32:46;;;;;;;0.52;0.10;;;;;;;20.79;58.96;102050.34;5034236;28;20041;-67
2021/09/15 06:35:12;;;;;;;1.00;0.20;;;;;;;20.73;56.96;102052.69;5032723;28;20116;-66
2021/09/15 06:37:38;;;;;;;0.95;0.10;;;;;;;20.70;56.71;102080.34;5014550;28;20033;-66
2021/09/15 06:40:04;;;;;;;0.30;0.13;;;;;;;20.65;58.23;102081.81;5015206;28;20033;-67
2021/09/15 06:42:29;;;;;;;0.10;0.10;;;;;;;20.67;56.03;102077.94;5031876;28;20025;-67
2021/09/15 06:44:55;;;;;;;0.30;0.20;;;;;;;20.64;56.71;102072.75;5031878;28;20507;-66
2021/09/15 06:47:21;;;;;;;0.22;0.00;;;;;;;20.60;57.36;102074.09;5032256;28;20105;-66
2021/09/15 06:49:46;;;;;;;0.40;0.20;;;;;;;20.64;56.12;102075.50;5032840;28;20040;-66
2021/09/15 06:52:11;;;;;;;1.13;0.15;;;;;;;20.66;57.03;102078.97;5032499;28;20035;-66
2021/09/15 06:54:37;;;;;;;0.55;0.20;;;;;;;20.60;56.00;102079.56;5034316;28;20039;-66
2021/09/15 06:57:02;;;;;;;0.38;0.10;;;;;;;20.57;56.89;102079.88;5032602;28;20077;-66
2021/09/15 06:59:27;;;;;;;0.20;0.00;;;;;;;20.58;58.20;102084.34;5032362;28;20025;-66
2021/09/15 07:01:53;;;;;;;1.55;0.20;;;;;;;20.53;56.76;102083.94;5032579;28;20017;-66
2021/09/15 07:04:18;;;;;;;1.02;0.28;;;;;;;20.46;55.74;102082.84;5032027;28;20041;-66
2021/09/15 07:06:43;;;;;;;0.68;0.35;;;;;;;20.46;56.53;102085.56;5035292;28;20029;-67
2021/09/15 07:09:09;;;;;;;0.30;0.10;;;;;;;20.44;55.99;102093.06;5039095;28;20029;-66
2021/09/15 07:11:35;;;;;;;0.85;0.10;;;;;;;20.48;55.57;102086.25;5039223;28;20385;-67
2021/09/15 07:14:03;;;;;;;0.52;0.20;;;;;;;20.44;56.50;102090.31;5039253;28;20431;-66
2021/09/15 07:16:29;;;;;;;0.43;0.10;;;;;;;20.46;55.65;102088.28;5043273;28;20052;-66
2021/09/15 07:18:54;;;;;;;0.88;0.20;;;;;;;20.47;55.53;102087.28;5039878;28;20025;-66
2021/09/15 07:21:19;;;;;;;0.85;0.22;;;;;;;20.44;57.00;102101.25;5038129;28;20531;-66
2021/09/15 07:23:45;;;;;;;0.52;0.10;;;;;;;20.46;56.34;102093.75;5036617;28;20017;-66
2021/09/15 07:26:10;;;;;;;0.90;0.45;;;;;;;20.44;56.00;102095.78;5038420;28;20044;-66
2021/09/15 07:28:36;;;;;;;0.63;0.10;;;;;;;20.48;56.95;102091.72;5039128;28;20040;-67
2021/09/15 07:31:02;;;;;;;0.20;0.20;;;;;;;20.47;56.82;102098.22;5038404;28;20480;-66
2021/09/15 07:33:32;;;;;;;0.40;0.40;;;;;;;20.46;56.04;102099.22;5038088;28;20061;-67
2021/09/15 07:35:57;;;;;;;0.95;0.20;;;;;;;20.47;57.36;102106.41;5039121;28;20024;-66
2021/09/15 07:38:23;;;;;;;0.17;0.05;;;;;;;20.48;56.52;102102.66;5038962;28;20116;-67
2021/09/15 07:40:48;;;;;;;0.60;0.20;;;;;;;20.47;57.01;102111.88;5030159;28;20042;-66
2021/09/15 07:43:13;;;;;;;0.73;0.13;;;;;;;20.48;56.96;102108.13;5035291;28;20090;-66
2021/09/15 07:45:39;;;;;;;0.50;0.20;;;;;;;20.47;57.02;102116.47;5039055;28;20025;-66
2021/09/15 07:48:04;;;;;;;0.32;0.25;;;;;;;20.45;56.91;102113.91;5038989;28;20029;-66
2021/09/15 07:50:29;;;;;;;0.22;0.10;;;;;;;20.47;55.50;102116.47;5039431;28;20482;-67
2021/09/15 07:52:55;;;;;;;0.10;0.03;;;;;;;20.49;56.02;102111.72;5028000;28;20040;-67
2021/09/15 07:55:20;;;;;;;0.38;0.15;;;;;;;20.48;55.09;102119.06;5026795;28;20064;-66
2021/09/15 07:57:47;;;;;;;0.10;0.00;;;;;;;20.49;55.83;102126.25;5037386;28;20021;-66
2021/09/15 08:00:13;;;;;;;0.82;0.13;;;;;;;20.50;57.00;102122.50;5032610;28;20029;-66
2021/09/15 08:02:39;;;;;;;0.13;0.10;;;;;;;20.47;55.94;102122.78;5034125;28;20041;-66
2021/09/15 08:05:05;;;;;;;0.93;0.10;;;;;;;20.43;55.97;102121.41;5021108;28;20025;-66
2021/09/15 08:07:30;;;;;;;1.17;0.10;;;;;;;20.46;56.62;102118.34;5040921;28;20040;-67
2021/09/15 08:09:55;;;;;;;1.23;0.20;;;;;;;20.48;57.19;102119.06;5020546;28;20029;-66
2021/09/15 08:12:21;;;;;;;0.10;0.10;;;;;;;20.47;57.84;102120.06;5038176;28;20414;-66
2021/09/15 08:14:46;;;;;;;0.22;0.10;;;;;;;20.46;57.12;102126.53;5025307;28;20026;-66
2021/09/15 08:17:11;;;;;;;0.50;0.10;;;;;;;20.44;56.37;102128.56;5037111;28;20025;-66
2021/09/15 08:19:37;;;;;;;0.60;0.20;;;;;;;20.47;56.50;102130.13;5024039;28;20112;-66
2021/09/15 08:22:02;;;;;;;0.50;0.10;;;;;;;20.48;56.99;102124.50;5025283;28;20022;-67
2021/09/15 08:24:28;;;;;;;2.65;0.20;;;;;;;20.45;56.39;102135.75;5034740;28;20037;-66
2021/09/15 08:26:53;;;;;;;0.20;0.17;;;;;;;20.47;56.92;102141.06;5031661;28;20415;-66
2021/09/15 08:29:18;;;;;;;0.10;0.10;;;;;;;20.47;56.68;102133.72;5035323;28;20033;-67
2021/09/15 08:31:44;;;;;;;0.20;0.13;;;;;;;20.47;56.63;102133.72;5034859;28;20048;-67
2021/09/15 08:34:09;;;;;;;0.32;0.10;;;;;;;20.48;55.64;102118.19;5035681;28;20045;-67
2021/09/15 08:36:34;;;;;;;0.20;0.13;;;;;;;20.49;56.03;102126.25;5035460;28;20420;-67
2021/09/15 08:39:01;;;;;;;0.17;0.15;;;;;;;20.51;57.54;102132.44;5035485;28;20128;-67
2021/09/15 08:41:26;;;;;;;0.25;0.13;;;;;;;20.49;57.33;102131.72;5035713;28;20040;-67
2021/09/15 08:43:51;;;;;;;0.20;0.00;;;;;;;20.48;58.64;102131.84;5034010;28;20017;-67
2021/09/15 08:46:20;;;;;;;0.17;0.17;;;;;;;20.50;56.38;102130.72;5035324;28;20033;-66
2021/09/15 08:48:47;;;;;;;0.20;0.20;;;;;;;20.52;56.75;102136.00;5034950;28;20058;-67
2021/09/15 08:51:16;;;;;;;0.20;0.10;;;;;;;20.55;56.44;102144.75;5034911;28;20119;-66
2021/09/15 08:53:44;;;;;;;0.30;0.15;;;;;;;20.57;57.34;102144.59;5035377;28;20021;-67
2021/09/15 08:56:11;;;;;;;0.45;0.15;;;;;;;20.51;57.77;102135.16;5036405;28;20624;-66
2021/09/15 08:58:36;;;;;;;0.55;0.10;;;;;;;20.50;57.30;102141.63;5036147;28;20119;-67
2021/09/15 09:01:13;;;;;;;0.25;0.08;;;;;;;20.48;57.39;102146.38;5034968;28;20116;-67
2021/09/15 09:03:39;;;;;;;0.57;0.10;;;;;;;20.51;56.44;102139.75;5035115;28;20109;-67
2021/09/15 09:06:13;;;;;;;0.75;0.10;;;;;;;20.49;57.58;102136.31;5033956;28;20053;-66
2021/09/15 09:08:43;;;;;;;0.75;0.08;;;;;;;20.49;56.62;102142.66;5032022;28;20468;-66
2021/09/15 09:11:10;;;;;;;0.10;0.10;;;;;;;20.51;57.76;102143.34;5029285;28;20477;-66
2021/09/15 09:13:57;;;;;;;0.10;0.08;;;;;;;20.47;56.97;102139.19;5033446;28;20025;-67
2021/09/15 09:16:45;;;;;;;0.60;0.17;;;;;;;20.53;56.94;102144.06;5016302;28;20067;-67
2021/09/15 09:19:15;;;;;;;0.10;0.00;;;;;;;20.51;56.83;102143.34;5035643;28;20021;-66
2021/09/15 09:21:46;;;;;;;0.28;0.10;;;;;;;20.54;56.62;102140.31;5034732;28;20033;-67
2021/09/15 09:24:13;;;;;;;0.55;0.20;;;;;;;20.53;56.75;102140.47;5017818;28;20017;-66
2021/09/15 09:26:47;;;;;;;0.25;0.10;;;;;;;20.52;57.21;102145.06;5033576;28;20029;-67
2021/09/15 09:29:15;;;;;;;0.57;0.13;;;;;;;20.57;56.77;102140.00;5034023;28;20546;-66
2021/09/15 09:31:41;;;;;;;0.30;0.10;;;;;;;20.55;57.25;102158.41;5031917;28;20116;-67
2021/09/15 09:34:06;;;;;;;0.60;0.17;;;;;;;20.55;57.40;102155.69;5033152;28;20051;-66
2021/09/15 09:36:32;;;;;;;0.60;0.20;;;;;;;20.54;56.72;102153.09;5033263;28;20361;-69
2021/09/15 09:38:57;;;;;;;0.10;0.10;;;;;;;20.50;55.02;102155.31;5032929;28;20427;-67
2021/09/15 09:41:22;;;;;;;1.00;0.30;;;;;;;20.75;54.19;102158.28;5033740;28;20032;-66
2021/09/15 09:43:52;;;;;;;2.30;0.45;;;;;;;20.68;54.69;102152.59;5033504;28;20025;-67
2021/09/15 09:46:20;;;;;;;0.98;0.20;;;;;;;20.76;55.86;102155.38;5033567;28;20044;-66
2021/09/15 09:48:54;;;;;;;0.65;0.30;;;;;;;20.71;55.23;102155.84;5033886;28;20025;-66
2021/09/15 09:51:38;;;;;;;0.25;0.10;;;;;;;20.65;55.52;102159.19;5033814;28;20028;-66
2021/09/15 09:54:18;;;;;;;0.80;0.13;;;;;;;20.64;53.31;102152.00;5030274;28;20084;-66
2021/09/15 09:56:46;;;;;;;0.25;0.13;;;;;;;20.66;55.80;102155.47;5032920;28;20033;-66
2021/09/15 09:59:12;;;;;;;0.20;0.10;;;;;;;20.67;54.40;102156.34;5032852;28;20026;-66
2021/09/15 10:01:46;;;;;;;0.77;0.10;;;;;;;20.63;55.09;102154.91;5033020;28;20021;-66
2021/09/15 10:04:13;;;;;;;0.70;0.25;;;;;;;20.51;55.42;102151.56;5033865;28;20353;-65
2021/09/15 10:06:39;;;;;;;0.40;0.20;;;;;;;20.52;56.61;102141.47;5031815;28;20076;-66
2021/09/15 10:09:07;;;;;;;1.10;0.30;;;;;;;20.58;54.09;102147.16;5031978;28;20033;-66
2021/09/15 10:11:38;;;;;;;0.47;0.03;;;;;;;20.62;57.03;102148.56;5033678;28;20022;-66
2021/09/15 10:14:06;;;;;;;1.65;0.28;;;;;;;20.62;55.60;102154.03;5033734;28;20105;-66
2021/09/15 10:16:42;;;;;;;1.05;0.10;;;;;;;20.66;54.22;102147.28;5034069;28;20060;-66
2021/09/15 10:19:08;;;;;;;0.45;0.28;;;;;;;20.64;55.17;102145.69;5033485;28;20026;-66
2021/09/15 10:21:35;;;;;;;0.55;0.32;;;;;;;20.61;54.27;102146.84;5033719;28;20029;-66
2021/09/15 10:24:03;;;;;;;0.63;0.20;;;;;;;20.63;55.17;102144.81;5033536;28;20457;-66
2021/09/15 10:26:41;;;;;;;0.43;0.20;;;;;;;20.60;55.64;102139.69;5033554;28;20108;-66
2021/09/15 10:29:27;;;;;;;0.47;0.10;;;;;;;20.64;54.52;102143.81;5034304;28;20038;-66
2021/09/15 10:31:56;;;;;;;1.10;0.20;;;;;;;20.56;55.00;102148.34;5033651;28;20021;-66
2021/09/15 10:34:39;;;;;;;0.80;0.10;;;;;;;20.64;55.19;102151.16;5033058;28;20050;-65
2021/09/15 10:37:30;;;;;;;0.20;0.20;;;;;;;20.66;55.36;102150.00;5031998;28;20022;-66
2021/09/15 10:40:01;;;;;;;1.20;0.10;;;;;;;20.66;54.50;102149.16;5028491;28;20045;-66
2021/09/15 10:45:16;;;;;;;1.25;0.10;;;;;;;20.63;55.76;102155.75;5033230;28;20040;-66
2021/09/15 10:47:43;;;;;;;0.20;0.10;;;;;;;20.64;56.28;102156.63;5033370;28;20022;-66
2021/09/15 10:50:11;;;;;;;0.20;0.15;;;;;;;20.63;57.16;102154.91;5032208;28;20029;-66
2021/09/15 10:52:43;;;;;;;1.75;0.28;;;;;;;20.63;55.86;102155.75;5033125;28;20053;-66
2021/09/15 10:55:24;;;;;;;0.60;0.03;;;;;;;20.62;54.91;102148.56;5030898;28;20023;-66
2021/09/15 10:57:50;;;;;;;1.25;0.25;;;;;;;20.64;54.24;102157.47;5021563;28;20030;-66
2021/09/15 11:00:15;;;;;;;1.48;0.40;;;;;;;20.68;55.74;102153.44;5032601;28;20080;-66
2021/09/15 11:02:42;;;;;;;0.10;0.10;;;;;;;20.62;54.83;102159.50;5032916;28;20389;-66
2021/09/15 11:05:26;;;;;;;1.23;0.20;;;;;;;20.67;54.97;102164.53;5031729;28;20053;-67
2021/09/15 11:07:55;;;;;;;0.43;0.10;;;;;;;20.65;54.99;102159.19;5033258;28;20017;-66
2021/09/15 11:10:35;;;;;;;0.60;0.20;;;;;;;20.66;55.80;102160.06;5028522;28;20034;-66
2021/09/15 11:13:09;;;;;;;0.88;0.20;;;;;;;20.75;54.14;102169.19;5032208;28;20028;-65
2021/09/15 11:15:49;;;;;;;0.70;0.30;;;;;;;20.68;54.47;102172.56;5032790;28;20354;-65
2021/09/15 11:18:28;;;;;;;0.38;0.00;;;;;;;20.73;55.39;102172.94;5031330;28;20033;-65
2021/09/15 11:21:00;;;;;;;0.70;0.20;;;;;;;20.65;55.00;102170.13;5031833;28;20029;-65
2021/09/15 11:23:28;;;;;;;0.55;0.17;;;;;;;20.63;54.48;102163.09;5022538;28;20483;-66
2021/09/15 11:25:54;;;;;;;0.10;0.05;;;;;;;20.63;55.49;102158.50;5032354;28;20025;-65
2021/09/15 11:28:22;;;;;;;2.00;0.30;;;;;;;20.64;56.01;102157.47;5033957;28;20041;-65
2021/09/15 11:30:51;;;;;;;1.00;0.20;;;;;;;20.63;55.67;102161.22;5031742;28;20025;-65